createdAt,value
2017-06-28T00:02:09.290Z,20.90
2017-06-28T00:04:37.399Z,20.90
2017-06-28T00:07:05.468Z,20.90
2017-06-28T00:09:33.719Z,20.90
2017-06-28T00:12:01.796Z,20.80
2017-06-28T00:14:30.647Z,20.80
2017-06-28T00:16:58.718Z,20.80
2017-06-28T00:19:26.791Z,20.80
2017-06-28T00:21:54.892Z,20.70
2017-06-28T00:24:22.982Z,20.80
2017-06-28T00:26:51.820Z,20.80
2017-06-28T00:29:19.902Z,20.80
2017-06-28T00:31:47.975Z,20.80
2017-06-28T00:34:16.053Z,20.70
2017-06-28T00:36:44.123Z,20.80
2017-06-28T00:39:12.194Z,20.80
2017-06-28T00:41:40.284Z,20.80
2017-06-28T00:44:08.361Z,20.80
2017-06-28T00:46:36.436Z,20.80
2017-06-28T00:49:05.276Z,20.80
2017-06-28T00:51:33.370Z,20.90
2017-06-28T00:54:01.443Z,20.80
2017-06-28T00:56:29.514Z,20.80
2017-06-28T00:58:57.603Z,20.80
2017-06-28T01:01:25.672Z,20.80
2017-06-28T01:03:53.748Z,20.80
2017-06-28T01:06:21.823Z,20.70
2017-06-28T01:08:49.904Z,20.70
2017-06-28T01:11:17.999Z,20.70
2017-06-28T01:13:46.076Z,20.70
2017-06-28T01:16:14.147Z,20.60
2017-06-28T01:18:42.231Z,20.60
2017-06-28T01:21:10.297Z,20.50
2017-06-28T01:23:38.419Z,20.50
2017-06-28T01:26:06.555Z,20.50
2017-06-28T01:28:34.612Z,20.50
2017-06-28T01:31:02.688Z,20.30
2017-06-28T01:33:30.751Z,20.30
2017-06-28T01:35:58.826Z,20.30
2017-06-28T01:38:26.905Z,20.30
2017-06-28T01:40:54.971Z,20.20
2017-06-28T01:43:23.052Z,20.20
2017-06-28T01:45:51.116Z,20.10
2017-06-28T01:48:19.191Z,20.00
2017-06-28T01:50:47.256Z,19.90
2017-06-28T01:53:15.372Z,19.90
2017-06-28T01:55:43.428Z,20.00
2017-06-28T01:58:11.503Z,19.90
2017-06-28T02:00:39.625Z,20.00
2017-06-28T02:03:07.703Z,19.90
2017-06-28T02:05:35.782Z,19.90
2017-06-28T02:08:04.616Z,19.80
2017-06-28T02:10:32.687Z,19.80
2017-06-28T02:13:00.770Z,19.80
2017-06-28T02:15:28.851Z,19.70
2017-06-28T02:17:56.940Z,19.80
2017-06-28T02:20:25.022Z,19.80
2017-06-28T02:22:53.096Z,19.80
2017-06-28T02:25:21.176Z,19.90
2017-06-28T02:27:49.244Z,19.90
2017-06-28T02:30:18.091Z,19.90
2017-06-28T02:32:46.931Z,19.90
2017-06-28T02:35:15.786Z,19.90
2017-06-28T02:37:43.864Z,19.80
2017-06-28T02:40:11.927Z,19.90
2017-06-28T02:42:40.002Z,19.90
2017-06-28T02:45:08.075Z,19.90
2017-06-28T02:47:36.151Z,19.90
2017-06-28T02:50:04.218Z,19.90
2017-06-28T02:52:32.358Z,19.90
2017-06-28T02:55:00.495Z,19.90
2017-06-28T02:57:28.571Z,19.80
2017-06-28T02:59:56.642Z,19.80
2017-06-28T03:02:25.508Z,19.90
2017-06-28T03:04:53.580Z,19.80
2017-06-28T03:07:26.534Z,19.90
2017-06-28T03:09:54.594Z,19.90
2017-06-28T03:12:22.667Z,19.90
2017-06-28T03:14:50.763Z,19.90
2017-06-28T03:17:18.840Z,19.90
2017-06-28T03:19:46.930Z,19.90
2017-06-28T03:22:15.007Z,19.90
2017-06-28T03:24:43.091Z,19.80
2017-06-28T03:27:11.164Z,19.80
2017-06-28T03:29:39.260Z,19.80
2017-06-28T03:32:07.550Z,19.80
2017-06-28T03:34:35.616Z,19.70
2017-06-28T03:37:03.686Z,19.80
2017-06-28T03:39:31.747Z,19.70
2017-06-28T03:42:00.641Z,19.70
2017-06-28T03:44:29.487Z,19.70
2017-06-28T03:46:57.583Z,19.60
2017-06-28T03:49:25.658Z,19.70
2017-06-28T03:51:53.759Z,19.70
2017-06-28T03:54:21.833Z,19.70
2017-06-28T03:56:49.955Z,19.60
2017-06-28T03:59:18.044Z,19.60
2017-06-28T04:01:46.116Z,19.60
2017-06-28T04:04:14.734Z,19.40
2017-06-28T04:06:42.807Z,19.30
2017-06-28T04:09:10.879Z,19.30
2017-06-28T04:11:38.959Z,19.40
2017-06-28T04:14:07.049Z,19.40
2017-06-28T04:16:35.143Z,19.40
2017-06-28T04:19:03.241Z,19.50
2017-06-28T04:21:31.315Z,19.60
2017-06-28T04:23:59.387Z,19.70
2017-06-28T04:26:27.463Z,19.70
2017-06-28T04:28:56.310Z,19.80
2017-06-28T04:31:24.400Z,19.80
2017-06-28T04:33:52.466Z,19.80
2017-06-28T04:36:20.555Z,19.90
2017-06-28T04:38:48.631Z,20.00
2017-06-28T04:41:16.712Z,20.00
2017-06-28T04:43:44.790Z,19.90
2017-06-28T04:46:12.888Z,19.90
2017-06-28T04:48:40.959Z,19.90
2017-06-28T04:51:09.026Z,19.90
2017-06-28T04:53:37.108Z,19.90
2017-06-28T04:56:05.177Z,19.70
2017-06-28T04:58:33.298Z,19.70
2017-06-28T05:01:01.379Z,19.80
2017-06-28T05:03:29.469Z,19.70
2017-06-28T05:05:58.311Z,19.90
2017-06-28T05:08:26.415Z,19.90
2017-06-28T05:10:54.703Z,20.00
2017-06-28T05:13:22.780Z,20.10
2017-06-28T05:15:50.855Z,20.10
2017-06-28T05:18:18.940Z,20.20
2017-06-28T05:20:47.914Z,20.10
2017-06-28T05:23:16.781Z,20.20
2017-06-28T05:25:44.871Z,20.20
2017-06-28T05:28:13.020Z,20.20
2017-06-28T05:30:41.111Z,20.20
2017-06-28T05:33:09.188Z,20.30
2017-06-28T05:35:37.271Z,20.30
2017-06-28T05:38:05.351Z,20.30
2017-06-28T05:40:34.199Z,20.50
2017-06-28T05:43:02.296Z,20.50
2017-06-28T05:45:30.380Z,20.50
2017-06-28T05:47:59.235Z,20.50
2017-06-28T05:50:27.314Z,20.50
2017-06-28T05:52:55.409Z,20.60
2017-06-28T05:55:23.487Z,20.60
2017-06-28T05:57:51.660Z,20.60
2017-06-28T06:00:19.730Z,20.60
2017-06-28T06:02:47.810Z,20.70
2017-06-28T06:05:16.656Z,21.00
2017-06-28T06:07:44.731Z,21.00
2017-06-28T06:10:12.822Z,21.10
2017-06-28T06:12:40.887Z,21.20
2017-06-28T06:15:09.015Z,21.10
2017-06-28T06:17:37.076Z,21.10
2017-06-28T06:20:05.155Z,21.10
2017-06-28T06:22:33.233Z,21.10
2017-06-28T06:25:01.451Z,21.00
2017-06-28T06:27:29.536Z,21.00
2017-06-28T06:29:57.619Z,21.00
2017-06-28T06:32:25.704Z,21.00
2017-06-28T06:34:54.540Z,21.00
2017-06-28T06:37:23.399Z,21.00
2017-06-28T06:39:51.471Z,21.00
2017-06-28T06:42:19.548Z,21.00
2017-06-28T06:44:47.625Z,21.00
2017-06-28T06:47:15.732Z,21.00
2017-06-28T06:49:43.799Z,21.00
2017-06-28T06:52:11.863Z,21.00
2017-06-28T06:54:39.948Z,21.00
2017-06-28T06:57:08.030Z,21.00
2017-06-28T06:59:36.115Z,21.00
2017-06-28T07:02:04.192Z,21.00
2017-06-28T07:04:32.271Z,20.90
2017-06-28T07:07:00.342Z,20.90
2017-06-28T07:09:28.432Z,20.80
2017-06-28T07:11:57.303Z,20.80
2017-06-28T07:14:25.385Z,20.80
2017-06-28T07:16:53.468Z,20.80
2017-06-28T07:19:21.563Z,20.70
2017-06-28T07:21:49.649Z,20.70
2017-06-28T07:24:17.749Z,20.60
2017-06-28T07:26:45.840Z,20.50
2017-06-28T07:29:13.991Z,20.50
2017-06-28T07:31:42.084Z,20.40
2017-06-28T07:34:10.175Z,20.40
2017-06-28T07:36:38.260Z,20.50
2017-06-28T07:39:06.332Z,20.40
2017-06-28T07:41:34.431Z,20.50
2017-06-28T07:44:02.504Z,20.50
2017-06-28T07:46:30.576Z,20.50
2017-06-28T07:48:58.664Z,20.50
2017-06-28T07:51:26.730Z,20.60
2017-06-28T07:53:55.585Z,20.60
2017-06-28T07:56:23.663Z,20.50
2017-06-28T07:58:51.760Z,20.60
2017-06-28T08:01:19.832Z,20.60
2017-06-28T08:03:48.011Z,20.60
2017-06-28T08:06:16.083Z,20.70
2017-06-28T08:08:44.197Z,20.70
2017-06-28T08:11:12.277Z,20.70
2017-06-28T08:13:41.134Z,20.70
2017-06-28T08:16:09.216Z,20.60
2017-06-28T08:18:37.309Z,20.70
2017-06-28T08:21:05.383Z,20.70
2017-06-28T08:23:33.454Z,20.70
2017-06-28T08:26:02.315Z,20.70
2017-06-28T08:28:30.396Z,20.70
2017-06-28T08:30:58.490Z,20.70
2017-06-28T08:33:27.335Z,20.70
2017-06-28T08:35:55.428Z,20.60
2017-06-28T08:38:23.500Z,20.70
2017-06-28T08:40:51.577Z,20.70
2017-06-28T08:43:19.721Z,20.80
2017-06-28T08:45:47.896Z,20.70
2017-06-28T08:48:15.972Z,20.70
2017-06-28T08:50:44.040Z,20.80
2017-06-28T08:53:12.114Z,20.80
2017-06-28T08:55:40.191Z,20.90
2017-06-28T08:58:09.039Z,21.00
2017-06-28T09:00:37.890Z,21.00
2017-06-28T09:03:05.976Z,21.00
2017-06-28T09:05:34.047Z,21.10
2017-06-28T09:08:02.124Z,21.10
2017-06-28T09:10:30.209Z,21.10
2017-06-28T09:12:58.288Z,21.20
2017-06-28T09:15:27.139Z,21.20
2017-06-28T09:17:55.225Z,21.20
2017-06-28T09:20:23.339Z,21.30
2017-06-28T09:22:51.409Z,21.30
2017-06-28T09:25:19.482Z,21.30
2017-06-28T09:27:47.560Z,21.40
2017-06-28T09:30:15.636Z,21.50
2017-06-28T09:32:43.723Z,21.50
2017-06-28T09:35:11.789Z,21.60
2017-06-28T09:37:39.875Z,21.70
2017-06-28T09:40:07.963Z,21.70
2017-06-28T09:42:36.043Z,21.80
2017-06-28T09:45:04.146Z,21.80
2017-06-28T09:47:32.995Z,21.80
2017-06-28T09:50:01.074Z,21.80
2017-06-28T09:52:29.155Z,21.80
2017-06-28T09:54:57.220Z,21.90
2017-06-28T09:57:25.288Z,21.90
2017-06-28T09:59:53.364Z,21.90
2017-06-28T10:02:21.431Z,21.90
2017-06-28T10:04:49.503Z,22.00
2017-06-28T10:07:17.579Z,22.10
2017-06-28T10:09:45.647Z,22.20
2017-06-28T10:12:13.720Z,22.30
2017-06-28T10:14:41.795Z,22.40
2017-06-28T10:17:09.867Z,22.40
2017-06-28T10:19:38.017Z,22.50
2017-06-28T10:22:06.094Z,22.50
2017-06-28T10:24:34.163Z,22.50
2017-06-28T10:27:02.235Z,22.50
2017-06-28T10:29:30.307Z,22.60
2017-06-28T10:31:58.384Z,22.60
2017-06-28T10:34:26.480Z,22.80
2017-06-28T10:36:54.558Z,22.80
2017-06-28T10:39:22.635Z,22.90
2017-06-28T10:41:50.706Z,23.00
2017-06-28T10:44:18.779Z,23.10
2017-06-28T10:46:46.863Z,23.10
2017-06-28T10:49:14.927Z,23.20
2017-06-28T10:51:43.000Z,23.20
2017-06-28T10:54:11.088Z,23.20
2017-06-28T10:56:39.924Z,23.30
2017-06-28T10:59:08.009Z,23.30
2017-06-28T11:01:36.066Z,23.40
2017-06-28T11:04:04.151Z,23.30
2017-06-28T11:06:32.211Z,23.30
2017-06-28T11:09:00.287Z,23.30
2017-06-28T11:11:28.355Z,23.30
2017-06-28T11:13:56.601Z,23.30
2017-06-28T11:16:25.437Z,23.40
2017-06-28T11:18:53.502Z,23.40
2017-06-28T11:21:21.591Z,23.50
2017-06-28T11:23:49.659Z,23.50
2017-06-28T11:26:17.779Z,23.60
2017-06-28T11:28:46.615Z,23.70
2017-06-28T11:31:14.724Z,23.70
2017-06-28T11:33:42.807Z,23.70
2017-06-28T11:36:11.676Z,23.70
2017-06-28T11:38:39.744Z,23.70
2017-06-28T11:41:07.820Z,23.80
2017-06-28T11:43:35.892Z,23.70
2017-06-28T11:46:03.976Z,23.70
2017-06-28T11:48:32.043Z,23.70
2017-06-28T11:51:00.109Z,23.70
2017-06-28T11:53:28.515Z,23.70
2017-06-28T11:55:57.343Z,23.80
2017-06-28T11:58:25.417Z,23.80
2017-06-28T12:00:53.493Z,23.90
2017-06-28T12:03:21.567Z,24.00
2017-06-28T12:05:49.643Z,24.00
2017-06-28T12:08:17.728Z,24.00
2017-06-28T12:10:45.799Z,24.10
2017-06-28T12:13:13.883Z,24.10
2017-06-28T12:15:41.958Z,24.20
2017-06-28T12:18:10.031Z,24.20
2017-06-28T12:20:38.104Z,24.20
2017-06-28T12:23:06.170Z,24.30
2017-06-28T12:25:34.247Z,24.20
2017-06-28T12:28:02.314Z,24.30
2017-06-28T12:30:30.391Z,24.30
2017-06-28T12:32:58.476Z,24.40
2017-06-28T12:35:26.542Z,24.50
2017-06-28T12:37:54.613Z,24.50
2017-06-28T12:40:22.698Z,24.50
2017-06-28T12:42:51.531Z,24.60
2017-06-28T12:45:19.620Z,24.60
2017-06-28T12:47:47.717Z,24.70
2017-06-28T12:50:15.791Z,24.70
2017-06-28T12:52:43.876Z,24.60
2017-06-28T12:55:12.718Z,24.60
2017-06-28T12:57:40.791Z,24.60
2017-06-28T13:00:08.868Z,24.60
2017-06-28T13:02:36.944Z,24.60
2017-06-28T13:05:05.021Z,24.70
2017-06-28T13:07:33.115Z,24.70
2017-06-28T13:10:01.967Z,24.20
2017-06-28T13:12:30.038Z,24.20
2017-06-28T13:14:58.128Z,23.90
2017-06-28T13:17:26.207Z,23.50
2017-06-28T13:19:54.291Z,23.30
2017-06-28T13:22:23.155Z,23.10
2017-06-28T13:24:51.230Z,23.10
2017-06-28T13:27:19.304Z,23.00
2017-06-28T13:29:47.398Z,23.10
2017-06-28T13:32:15.475Z,23.20
2017-06-28T13:34:43.544Z,23.30
2017-06-28T13:37:11.641Z,23.20
2017-06-28T13:39:40.493Z,23.20
2017-06-28T13:42:08.567Z,23.20
2017-06-28T13:44:36.639Z,23.10
2017-06-28T13:47:04.706Z,23.20
2017-06-28T13:49:32.789Z,23.20
2017-06-28T13:52:00.883Z,23.20
2017-06-28T13:54:28.956Z,23.20
2017-06-28T13:56:57.014Z,23.20
2017-06-28T13:59:25.099Z,23.20
2017-06-28T14:01:53.941Z,23.20
2017-06-28T14:04:22.021Z,23.20
2017-06-28T14:06:50.087Z,23.30
2017-06-28T14:09:18.158Z,23.40
2017-06-28T14:11:46.231Z,23.30
2017-06-28T14:14:14.635Z,23.30
2017-06-28T14:16:42.699Z,23.40
2017-06-28T14:19:10.807Z,23.50
2017-06-28T14:21:38.876Z,23.50
2017-06-28T14:24:07.716Z,23.70
2017-06-28T14:26:35.794Z,23.70
2017-06-28T14:29:03.866Z,23.80
2017-06-28T14:31:31.938Z,23.80
2017-06-28T14:34:00.770Z,23.90
2017-06-28T14:36:28.849Z,23.90
2017-06-28T14:38:57.687Z,23.90
2017-06-28T14:41:25.765Z,23.90
2017-06-28T14:43:53.843Z,24.00
2017-06-28T14:46:21.912Z,24.00
2017-06-28T14:48:49.992Z,24.10
2017-06-28T14:51:18.148Z,24.00
2017-06-28T14:53:46.218Z,24.10
2017-06-28T14:56:14.290Z,24.10
2017-06-28T14:58:42.370Z,24.10
2017-06-28T15:01:10.439Z,24.10
2017-06-28T15:03:38.542Z,24.20
2017-06-28T15:06:06.620Z,24.30
2017-06-28T15:08:34.703Z,24.30
2017-06-28T15:11:02.775Z,24.40
2017-06-28T15:13:30.838Z,24.40
2017-06-28T15:15:58.918Z,24.40
2017-06-28T15:18:26.982Z,24.50
2017-06-28T15:20:55.055Z,24.50
2017-06-28T15:23:23.135Z,24.50
2017-06-28T15:25:51.211Z,24.50
2017-06-28T15:28:19.339Z,24.50
2017-06-28T15:30:47.442Z,24.50
2017-06-28T15:33:15.510Z,24.60
2017-06-28T15:35:43.575Z,24.60
2017-06-28T15:38:11.667Z,24.60
2017-06-28T15:40:39.731Z,24.60
2017-06-28T15:43:07.841Z,24.60
2017-06-28T15:45:35.907Z,24.60
2017-06-28T15:48:04.752Z,24.60
2017-06-28T15:50:32.833Z,24.60
2017-06-28T15:53:00.912Z,24.60
2017-06-28T15:55:28.982Z,24.70
2017-06-28T15:57:57.076Z,24.80
2017-06-28T16:00:25.921Z,24.80
2017-06-28T16:02:53.997Z,24.70
2017-06-28T16:05:22.073Z,24.80
2017-06-28T16:07:50.145Z,24.80
2017-06-28T16:10:18.228Z,24.80
2017-06-28T16:12:46.304Z,24.90
2017-06-28T16:15:14.394Z,24.80
2017-06-28T16:17:42.463Z,24.80
2017-06-28T16:20:10.554Z,24.80
2017-06-28T16:22:39.493Z,24.90
2017-06-28T16:25:07.640Z,24.80
2017-06-28T16:27:35.776Z,24.80
2017-06-28T16:30:03.849Z,24.90
2017-06-28T16:32:31.915Z,24.80
2017-06-28T16:35:00.051Z,24.80
2017-06-28T16:37:28.198Z,24.80
2017-06-28T16:39:57.027Z,25.00
2017-06-28T16:42:25.123Z,25.00
2017-06-28T16:44:53.200Z,25.10
2017-06-28T16:47:21.267Z,25.10
2017-06-28T16:49:49.399Z,25.10
2017-06-28T16:52:17.524Z,25.20
2017-06-28T16:54:45.599Z,25.10
2017-06-28T16:57:13.659Z,25.20
2017-06-28T16:59:41.756Z,25.20
2017-06-28T17:02:09.904Z,25.20
2017-06-28T17:04:37.975Z,25.20
2017-06-28T17:07:06.105Z,25.20
2017-06-28T17:09:34.238Z,25.10
2017-06-28T17:12:03.082Z,25.20
2017-06-28T17:14:31.147Z,25.20
2017-06-28T17:16:59.225Z,25.10
2017-06-28T17:19:27.317Z,25.00
2017-06-28T17:21:55.415Z,25.00
2017-06-28T17:24:23.564Z,24.90
2017-06-28T17:26:51.627Z,24.90
2017-06-28T17:29:19.708Z,24.90
2017-06-28T17:31:47.781Z,24.90
2017-06-28T17:34:15.905Z,24.90
2017-06-28T17:36:43.964Z,24.80
2017-06-28T17:39:12.836Z,24.70
2017-06-28T17:41:40.908Z,24.70
2017-06-28T17:44:09.047Z,24.80
2017-06-28T17:46:37.185Z,24.80
2017-06-28T17:49:05.246Z,24.80
2017-06-28T17:51:34.128Z,24.70
2017-06-28T17:54:02.252Z,24.70
2017-06-28T17:56:30.322Z,24.70
2017-06-28T17:58:58.399Z,24.60
2017-06-28T18:01:26.509Z,24.60
2017-06-28T18:03:54.600Z,24.60
2017-06-28T18:06:22.670Z,24.50
2017-06-28T18:08:51.527Z,24.50
2017-06-28T18:11:19.665Z,24.50
2017-06-28T18:13:47.743Z,24.40
2017-06-28T18:16:15.821Z,24.30
2017-06-28T18:18:43.894Z,24.30
2017-06-28T18:21:11.968Z,24.20
2017-06-28T18:23:40.065Z,24.30
2017-06-28T18:26:08.156Z,24.20
2017-06-28T18:28:36.238Z,24.30
2017-06-28T18:31:04.307Z,24.20
2017-06-28T18:33:32.374Z,24.20
2017-06-28T18:36:00.463Z,24.30
2017-06-28T18:38:28.547Z,24.20
2017-06-28T18:40:56.631Z,24.20
2017-06-28T18:43:24.712Z,24.20
2017-06-28T18:45:52.831Z,24.10
2017-06-28T18:48:20.967Z,24.10
2017-06-28T18:50:49.033Z,24.10
2017-06-28T18:53:17.163Z,24.00
2017-06-28T18:55:46.077Z,24.00
2017-06-28T18:58:15.515Z,24.10
2017-06-28T19:00:43.615Z,24.00
2017-06-28T19:03:11.745Z,24.10
2017-06-28T19:05:39.826Z,24.00
2017-06-28T19:08:07.926Z,23.90
2017-06-28T19:10:36.059Z,23.80
2017-06-28T19:13:04.119Z,23.90
2017-06-28T19:15:32.251Z,23.80
2017-06-28T19:18:00.343Z,23.80
2017-06-28T19:20:28.714Z,23.80
2017-06-28T19:22:56.783Z,23.80
2017-06-28T19:25:24.862Z,23.70
2017-06-28T19:27:52.935Z,23.60
2017-06-28T19:30:21.075Z,23.60
2017-06-28T19:32:49.154Z,23.60
2017-06-28T19:35:17.256Z,23.50
2017-06-28T19:37:45.326Z,23.40
2017-06-28T19:40:13.391Z,23.50
2017-06-28T19:42:41.471Z,23.50
2017-06-28T19:45:09.598Z,23.50
2017-06-28T19:47:37.724Z,23.40
2017-06-28T19:50:05.779Z,23.40
2017-06-28T19:52:33.870Z,23.40
2017-06-28T19:55:02.718Z,23.30
2017-06-28T19:57:30.808Z,23.30
2017-06-28T19:59:58.915Z,23.30
2017-06-28T20:02:26.991Z,23.30
2017-06-28T20:04:55.067Z,23.30
2017-06-28T20:07:23.132Z,23.30
2017-06-28T20:09:51.983Z,23.20
2017-06-28T20:12:20.053Z,23.20
2017-06-28T20:14:48.124Z,23.20
2017-06-28T20:17:16.195Z,23.20
2017-06-28T20:19:44.288Z,23.10
2017-06-28T20:22:12.343Z,23.10
2017-06-28T20:24:40.431Z,23.00
2017-06-28T20:27:08.534Z,23.00
2017-06-28T20:29:36.594Z,23.00
2017-06-28T20:32:05.447Z,22.80
2017-06-28T20:34:33.527Z,22.80
2017-06-28T20:37:01.597Z,22.80
2017-06-28T20:39:29.659Z,22.90
2017-06-28T20:41:57.737Z,22.90
2017-06-28T20:44:25.803Z,22.90
2017-06-28T20:46:53.874Z,22.90
2017-06-28T20:49:21.963Z,22.90
2017-06-28T20:51:50.719Z,22.80
2017-06-28T20:54:18.766Z,22.80
2017-06-28T20:56:46.851Z,22.70
2017-06-28T20:59:14.915Z,22.60
2017-06-28T21:01:43.351Z,22.60
2017-06-28T21:04:11.431Z,22.60
2017-06-28T21:06:39.975Z,22.50
2017-06-28T21:09:08.059Z,22.50
2017-06-28T21:11:36.223Z,22.40
2017-06-28T21:14:04.295Z,22.30
2017-06-28T21:16:32.367Z,22.30
2017-06-28T21:19:00.442Z,22.30
2017-06-28T21:21:28.512Z,22.30
2017-06-28T21:23:56.606Z,22.20
2017-06-28T21:26:24.684Z,21.90
2017-06-28T21:28:52.739Z,21.90
2017-06-28T21:31:20.838Z,21.80
2017-06-28T21:33:48.915Z,21.80
2017-06-28T21:36:16.983Z,21.90
2017-06-28T21:38:45.055Z,21.80
2017-06-28T21:41:13.127Z,21.90
2017-06-28T21:43:41.521Z,21.90
2017-06-28T21:46:09.593Z,21.80
2017-06-28T21:48:37.656Z,21.80
2017-06-28T21:51:05.746Z,21.70
2017-06-28T21:53:33.821Z,21.70
2017-06-28T21:56:02.657Z,21.60
2017-06-28T21:58:30.723Z,21.60
2017-06-28T22:00:58.791Z,21.50
2017-06-28T22:03:26.867Z,21.40
2017-06-28T22:05:54.942Z,21.30
2017-06-28T22:08:23.488Z,21.30
2017-06-28T22:10:51.563Z,21.30
2017-06-28T22:13:20.435Z,21.30
2017-06-28T22:15:48.506Z,21.20
2017-06-28T22:18:16.568Z,21.20
2017-06-28T22:20:44.703Z,21.10
2017-06-28T22:23:12.781Z,21.00
2017-06-28T22:25:41.196Z,20.90
2017-06-28T22:28:09.263Z,20.90
2017-06-28T22:30:37.338Z,20.70
2017-06-28T22:33:05.412Z,20.60
2017-06-28T22:35:33.507Z,20.60
2017-06-28T22:38:02.334Z,20.50
2017-06-28T22:40:30.432Z,20.50
2017-06-28T22:42:58.512Z,20.40
2017-06-28T22:45:26.628Z,20.40
2017-06-28T22:47:54.694Z,20.30
2017-06-28T22:50:23.967Z,20.30
2017-06-28T22:52:52.047Z,20.20
2017-06-28T22:55:20.116Z,20.20
2017-06-28T22:57:48.188Z,20.20
2017-06-28T23:00:16.260Z,20.10
2017-06-28T23:02:44.346Z,20.00
2017-06-28T23:05:13.187Z,19.80
2017-06-28T23:07:42.019Z,19.70
2017-06-28T23:10:10.091Z,19.70
2017-06-28T23:12:38.153Z,19.60
2017-06-28T23:15:06.636Z,19.70
2017-06-28T23:17:34.708Z,19.70
2017-06-28T23:20:02.778Z,19.70
2017-06-28T23:22:30.851Z,19.70
2017-06-28T23:24:58.931Z,19.80
2017-06-28T23:27:26.999Z,19.80
2017-06-28T23:29:55.063Z,19.90
2017-06-28T23:32:23.141Z,19.80
2017-06-28T23:34:51.203Z,19.70
2017-06-28T23:37:19.283Z,19.60
2017-06-28T23:39:47.854Z,19.50
2017-06-28T23:42:16.056Z,19.50
2017-06-28T23:44:44.126Z,19.50
2017-06-28T23:47:12.203Z,19.50
2017-06-28T23:49:41.037Z,19.40
2017-06-28T23:52:09.117Z,19.30
2017-06-28T23:54:37.207Z,19.40
2017-06-28T23:57:05.276Z,19.40
2017-06-28T23:59:33.372Z,19.50
